Time;durP1;ratioP1;P1;durP2;ratioP2;P2;SDS_P1;SDS_P2;PMS_P1;PMS_P2;Temp;Humidity;BMP_temperature;BMP_pressure;BME280_temperature;BME280_humidity;BME280_pressure;Samples;Min_cycle;Max_cycle;Signal;HPM_P1;HPM_P2
2021/04/07 00:01:41;;;;;;;5.38;2.80;;;;;;;-1.92;81.26;94881.47;4988359;28;20042;-66
2021/04/07 00:04:06;;;;;;;4.38;2.55;;;;;;;-1.99;81.62;94880.72;4988203;28;20061;-67
2021/04/07 00:06:34;;;;;;;5.45;2.78;;;;;;;-1.98;81.19;94882.31;4989061;28;20085;-65
2021/04/07 00:09:03;;;;;;;5.88;2.83;;;;;;;-2.00;80.97;94884.28;4985851;28;20074;-66
2021/04/07 00:11:29;;;;;;;6.18;2.53;;;;;;;-1.84;80.54;94889.97;4986434;28;20515;-66
2021/04/07 00:13:57;;;;;;;4.65;2.80;;;;;;;-1.94;80.54;94883.47;4989022;28;20047;-66
2021/04/07 00:16:22;;;;;;;4.82;2.90;;;;;;;-2.07;80.96;94896.41;4985515;28;20042;-66
2021/04/07 00:18:48;;;;;;;7.80;2.90;;;;;;;-1.90;81.73;94888.22;4988479;28;20077;-66
2021/04/07 00:21:13;;;;;;;5.78;3.00;;;;;;;-2.11;79.77;94887.53;4988606;28;20121;-66
2021/04/07 00:23:39;;;;;;;3.88;2.25;;;;;;;-1.94;79.33;94888.63;4988401;28;20047;-65
2021/04/07 00:26:05;;;;;;;6.97;2.67;;;;;;;-1.79;80.38;94890.16;4988352;28;20058;-67
2021/04/07 00:28:30;;;;;;;4.70;2.42;;;;;;;-1.78;80.24;94886.56;4992249;28;20041;-66
2021/04/07 00:30:57;;;;;;;5.53;2.50;;;;;;;-1.88;79.53;94891.38;4991600;28;20081;-66
2021/04/07 00:33:23;;;;;;;7.97;2.80;;;;;;;-1.93;78.08;94890.19;4991068;28;20042;-66
2021/04/07 00:35:49;;;;;;;6.97;2.83;;;;;;;-1.96;79.17;94885.47;4990628;28;20046;-66
2021/04/07 00:38:14;;;;;;;4.72;2.90;;;;;;;-2.03;78.81;94884.69;4992178;28;20050;-66
2021/04/07 00:40:40;;;;;;;4.40;2.63;;;;;;;-2.14;79.54;94885.34;4991796;28;20590;-66
2021/04/07 00:43:05;;;;;;;5.47;2.70;;;;;;;-2.14;80.10;94898.22;4988536;28;20054;-66
2021/04/07 00:45:31;;;;;;;6.63;3.60;;;;;;;-2.21;78.87;94900.03;4990435;28;20071;-66
2021/04/07 00:47:57;;;;;;;7.47;3.00;;;;;;;-2.25;80.37;94901.47;4992107;28;20145;-66
2021/04/07 00:50:25;;;;;;;6.93;3.00;;;;;;;-2.32;80.17;94897.09;4992031;28;20049;-66
2021/04/07 00:52:51;;;;;;;6.45;3.65;;;;;;;-2.27;81.34;94905.03;4991608;28;20113;-65
2021/04/07 00:55:18;;;;;;;10.13;3.45;;;;;;;-2.19;80.78;94905.81;4991331;28;20062;-66
2021/04/07 00:57:45;;;;;;;6.63;4.00;;;;;;;-2.40;80.44;94899.13;4991615;28;20113;-66
2021/04/07 01:00:13;;;;;;;9.35;3.60;;;;;;;-2.20;80.97;94909.38;4992100;28;20105;-66
2021/04/07 01:02:39;;;;;;;9.73;4.18;;;;;;;-2.16;80.09;94902.81;4989643;28;20042;-65
2021/04/07 01:05:07;;;;;;;5.38;3.50;;;;;;;-2.20;81.34;94905.00;4990663;28;20050;-66
2021/04/07 01:07:33;;;;;;;5.97;3.35;;;;;;;-2.19;80.45;94895.50;4991641;28;20085;-66
2021/04/07 01:09:59;;;;;;;6.72;3.70;;;;;;;-2.28;80.60;94903.44;4991447;28;20035;-66
2021/04/07 01:12:24;;;;;;;11.82;3.80;;;;;;;-2.10;81.90;94899.41;4990122;28;20480;-66
2021/04/07 01:14:50;;;;;;;6.75;3.30;;;;;;;-2.14;81.21;94903.38;4989962;28;20493;-66
2021/04/07 01:17:18;;;;;;;6.53;4.10;;;;;;;-2.37;82.63;94899.53;4991186;28;20042;-66
2021/04/07 01:19:44;;;;;;;7.15;3.55;;;;;;;-2.31;82.66;94909.00;4991586;28;20049;-66
2021/04/07 01:22:10;;;;;;;7.05;3.88;;;;;;;-2.61;82.52;94904.31;4990969;28;20039;-68
2021/04/07 01:24:36;;;;;;;7.60;4.20;;;;;;;-2.46;83.46;94895.56;4990863;28;20059;-65
2021/04/07 01:27:02;;;;;;;5.78;3.70;;;;;;;-2.55;82.64;94901.94;4987653;28;20125;-66
2021/04/07 01:29:28;;;;;;;7.20;3.50;;;;;;;-2.52;82.02;94901.53;4990884;28;20128;-66
2021/04/07 01:31:55;;;;;;;16.25;4.60;;;;;;;-2.44;82.75;94898.75;5005489;28;20045;-66
2021/04/07 01:34:31;;;;;;;6.53;3.95;;;;;;;-2.34;82.02;94899.09;4988956;28;20042;-66
2021/04/07 01:36:58;;;;;;;6.45;4.10;;;;;;;-2.35;81.77;94907.81;4990821;28;20127;-66
2021/04/07 01:39:25;;;;;;;5.90;3.67;;;;;;;-2.25;81.95;94901.47;4991533;28;20424;-65
2021/04/07 01:41:52;;;;;;;5.82;3.92;;;;;;;-2.25;80.82;94901.47;4989042;28;20045;-66
2021/04/07 01:44:19;;;;;;;7.03;3.50;;;;;;;-2.11;81.16;94903.00;4990423;28;20467;-65
2021/04/07 01:46:45;;;;;;;7.00;3.40;;;;;;;-2.13;80.73;94899.81;4989944;28;20042;-66
2021/04/07 01:49:12;;;;;;;6.28;3.40;;;;;;;-2.19;78.43;94900.66;5005434;28;20046;-66
2021/04/07 01:51:38;;;;;;;5.30;3.50;;;;;;;-2.13;79.22;94899.81;4989662;28;20113;-66
2021/04/07 01:54:05;;;;;;;8.55;4.10;;;;;;;-1.95;79.26;94892.19;5003554;28;20046;-66
2021/04/07 01:56:31;;;;;;;5.90;3.70;;;;;;;-2.02;79.81;94891.44;4990455;28;20039;-66
2021/04/07 01:59:04;;;;;;;7.70;3.63;;;;;;;-2.17;77.53;94899.44;4990421;28;20595;-66
2021/04/07 02:01:30;;;;;;;7.72;3.40;;;;;;;-2.10;77.36;94904.56;5005878;28;20128;-65
2021/04/07 02:03:56;;;;;;;6.55;3.50;;;;;;;-2.12;78.95;94896.25;4986555;28;20477;-66
2021/04/07 02:06:22;;;;;;;6.03;4.03;;;;;;;-2.18;79.49;94897.06;4990068;28;20057;-65
2021/04/07 02:08:48;;;;;;;5.00;3.38;;;;;;;-2.32;79.50;94899.69;4990607;28;20061;-66
2021/04/07 02:11:15;;;;;;;7.03;3.78;;;;;;;-2.29;79.76;94896.69;4989184;28;20042;-64
2021/04/07 02:13:41;;;;;;;8.02;3.78;;;;;;;-2.27;80.03;94899.88;4989617;28;20420;-66
2021/04/07 02:16:12;;;;;;;7.75;3.83;;;;;;;-2.09;81.01;94895.84;4989382;28;20566;-66
2021/04/07 02:18:39;;;;;;;7.85;3.45;;;;;;;-2.06;80.88;94895.44;4988245;28;20053;-65
2021/04/07 02:21:05;;;;;;;7.95;3.47;;;;;;;-2.24;78.85;94893.53;4990609;28;20504;-66
2021/04/07 02:23:32;;;;;;;4.93;3.58;;;;;;;-2.16;77.56;94910.53;4985761;28;20393;-66
2021/04/07 02:25:57;;;;;;;6.05;3.53;;;;;;;-2.12;77.85;94901.41;4989567;28;20077;-65
2021/04/07 02:28:24;;;;;;;4.78;3.35;;;;;;;-2.22;78.62;94903.63;4990309;28;20046;-66
2021/04/07 02:30:50;;;;;;;6.00;3.97;;;;;;;-2.17;78.23;94899.44;4989471;28;20061;-65
2021/04/07 02:33:16;;;;;;;5.57;3.33;;;;;;;-2.22;77.86;94901.06;4989937;28;20104;-65
2021/04/07 02:35:42;;;;;;;7.20;3.97;;;;;;;-2.39;77.86;94906.63;4989859;28;20404;-66
2021/04/07 02:38:08;;;;;;;7.90;3.60;;;;;;;-2.27;77.45;94906.81;4989023;28;20061;-65
2021/04/07 02:40:34;;;;;;;4.95;3.05;;;;;;;-2.22;77.29;94906.22;4988084;28;20089;-65
2021/04/07 02:43:00;;;;;;;6.55;3.10;;;;;;;-2.18;78.10;94899.66;4989522;28;20034;-65
2021/04/07 02:45:25;;;;;;;5.18;3.13;;;;;;;-2.15;77.64;94906.97;4987163;28;20050;-66
2021/04/07 02:47:51;;;;;;;5.20;3.30;;;;;;;-2.22;78.04;94911.38;4988808;28;20039;-66
2021/04/07 02:50:16;;;;;;;7.22;3.83;;;;;;;-2.25;77.72;94906.63;5005528;28;20065;-65
2021/04/07 02:52:42;;;;;;;6.25;3.75;;;;;;;-2.36;77.59;94916.53;4989341;28;20117;-66
2021/04/07 02:55:08;;;;;;;7.13;4.30;;;;;;;-2.17;76.25;94914.91;4988832;28;20054;-66
2021/04/07 02:57:33;;;;;;;7.00;3.22;;;;;;;-2.38;75.73;94913.38;4989063;28;20042;-65
2021/04/07 02:59:59;;;;;;;5.70;3.42;;;;;;;-2.24;75.76;94918.50;4989863;28;20049;-66
2021/04/07 03:02:24;;;;;;;5.03;3.47;;;;;;;-2.15;76.51;94927.59;4989176;28;20043;-66
2021/04/07 03:04:50;;;;;;;5.22;3.67;;;;;;;-2.22;76.92;94929.41;4987389;28;20038;-66
2021/04/07 03:07:15;;;;;;;6.80;3.88;;;;;;;-2.28;76.41;94931.00;4988945;28;20046;-66
2021/04/07 03:09:41;;;;;;;5.13;3.17;;;;;;;-2.34;77.11;94935.19;4989747;28;20049;-66
2021/04/07 03:12:07;;;;;;;7.03;3.60;;;;;;;-2.25;77.25;94927.25;4989614;28;20547;-65
2021/04/07 03:14:32;;;;;;;6.18;4.07;;;;;;;-2.37;76.87;94927.88;4986492;28;20052;-66
2021/04/07 03:16:58;;;;;;;6.30;3.67;;;;;;;-2.41;75.80;94934.41;4988139;28;20051;-66
2021/04/07 03:19:23;;;;;;;6.85;4.18;;;;;;;-2.35;76.74;94933.59;5004183;28;20042;-66
2021/04/07 03:21:49;;;;;;;5.40;3.42;;;;;;;-2.32;76.14;94943.50;4989564;28;20126;-66
2021/04/07 03:24:14;;;;;;;5.90;3.70;;;;;;;-2.24;75.99;94944.28;4988312;28;20034;-66
2021/04/07 03:26:40;;;;;;;5.22;3.58;;;;;;;-2.39;75.66;94936.78;4987481;28;20046;-66
2021/04/07 03:29:05;;;;;;;5.57;3.65;;;;;;;-2.27;76.36;94946.28;4987593;28;20828;-66
2021/04/07 03:31:31;;;;;;;6.05;3.80;;;;;;;-2.44;76.37;94950.28;4989245;28;20046;-66
2021/04/07 03:33:56;;;;;;;6.25;3.70;;;;;;;-2.48;75.87;94959.41;5001652;28;20039;-66
2021/04/07 03:36:22;;;;;;;5.55;3.70;;;;;;;-2.32;75.85;94948.66;4987470;28;20485;-66
2021/04/07 03:38:48;;;;;;;5.63;2.75;;;;;;;-2.37;75.74;94956.22;4988915;28;20089;-65
2021/04/07 03:41:13;;;;;;;6.10;3.50;;;;;;;-2.37;75.90;94970.88;4989127;28;20057;-66
2021/04/07 03:43:39;;;;;;;5.25;3.55;;;;;;;-2.48;76.47;94969.72;4988472;28;20405;-66
2021/04/07 03:46:04;;;;;;;4.40;3.20;;;;;;;-2.45;76.50;94974.47;4986635;28;20077;-66
2021/04/07 03:48:31;;;;;;;7.15;3.70;;;;;;;-2.30;76.15;94982.75;4988846;28;20042;-66
2021/04/07 03:50:58;;;;;;;4.97;3.65;;;;;;;-2.29;75.99;94974.03;4988424;28;20049;-66
2021/04/07 03:53:25;;;;;;;4.60;3.00;;;;;;;-2.44;76.67;94970.91;4984809;28;20114;-66
2021/04/07 03:55:53;;;;;;;7.35;3.63;;;;;;;-2.40;77.56;94977.22;4988545;28;20455;-66
2021/04/07 03:58:20;;;;;;;5.75;3.58;;;;;;;-2.31;78.82;94976.03;4988048;28;20054;-66
2021/04/07 04:00:46;;;;;;;4.35;2.78;;;;;;;-2.42;75.90;94983.56;4991384;28;20550;-66
2021/04/07 04:03:12;;;;;;;5.80;3.15;;;;;;;-2.40;76.87;94987.50;4989592;28;20042;-66
2021/04/07 04:05:38;;;;;;;5.43;3.50;;;;;;;-2.49;77.16;94983.56;4992814;28;20470;-65
2021/04/07 04:08:05;;;;;;;4.47;2.90;;;;;;;-2.49;76.94;94999.81;4993001;28;20038;-66
2021/04/07 04:10:32;;;;;;;8.10;3.22;;;;;;;-2.53;76.36;94990.13;4990809;28;20043;-65
2021/04/07 04:12:57;;;;;;;6.40;3.50;;;;;;;-2.62;76.63;95000.63;4992503;28;20120;-66
2021/04/07 04:15:23;;;;;;;4.80;3.50;;;;;;;-2.67;76.50;94997.88;4990622;28;20447;-66
2021/04/07 04:17:49;;;;;;;5.18;3.35;;;;;;;-2.65;77.51;95006.16;4992158;28;20085;-65
2021/04/07 04:20:16;;;;;;;5.72;3.03;;;;;;;-2.55;77.61;95010.16;4991535;28;20038;-66
2021/04/07 04:22:42;;;;;;;4.60;3.40;;;;;;;-2.53;76.26;95013.31;4992395;28;20038;-66
2021/04/07 04:25:11;;;;;;;5.05;3.10;;;;;;;-2.58;76.68;95015.69;4989428;28;20066;-66
2021/04/07 04:27:38;;;;;;;6.03;3.28;;;;;;;-2.54;77.07;95022.84;4992180;28;20053;-66
2021/04/07 04:30:05;;;;;;;4.57;3.10;;;;;;;-2.56;76.04;95021.44;4991870;28;20046;-66
2021/04/07 04:32:31;;;;;;;4.78;3.28;;;;;;;-2.46;76.09;95029.56;4992429;28;20043;-66
2021/04/07 04:34:56;;;;;;;6.13;3.15;;;;;;;-2.62;75.88;95028.19;4989838;28;20119;-66
2021/04/07 04:37:22;;;;;;;4.82;3.15;;;;;;;-2.53;76.75;95039.06;4992570;28;20108;-66
2021/04/07 04:39:47;;;;;;;7.63;2.80;;;;;;;-2.36;75.20;95045.41;4991849;28;20472;-66
2021/04/07 04:42:13;;;;;;;3.83;2.53;;;;;;;-2.47;75.42;95038.28;4989796;28;20042;-66
2021/04/07 04:44:38;;;;;;;8.02;3.20;;;;;;;-2.68;74.62;95059.88;5006702;28;20100;-66
2021/04/07 04:47:04;;;;;;;6.97;3.95;;;;;;;-2.72;75.40;95046.59;4990706;28;20104;-65
2021/04/07 04:49:30;;;;;;;5.25;3.42;;;;;;;-2.59;76.05;95050.19;4991414;28;20038;-66
2021/04/07 04:51:55;;;;;;;5.40;3.75;;;;;;;-2.57;76.10;95063.63;4989826;28;20069;-65
2021/04/07 04:54:22;;;;;;;6.20;3.35;;;;;;;-2.73;75.50;95060.47;4992002;28;20048;-66
2021/04/07 04:56:47;;;;;;;5.07;3.13;;;;;;;-2.73;75.73;95065.63;4987998;28;20558;-66
2021/04/07 04:59:13;;;;;;;4.78;2.90;;;;;;;-2.89;75.96;95071.16;4991863;28;20077;-65
2021/04/07 05:01:38;;;;;;;6.05;3.28;;;;;;;-2.93;76.87;95069.94;4991104;28;20043;-65
2021/04/07 05:04:07;;;;;;;7.15;4.38;;;;;;;-2.95;77.31;95072.72;4990129;28;20085;-65
2021/04/07 05:06:36;;;;;;;6.95;3.45;;;;;;;-2.70;77.50;95075.53;4990497;28;20053;-66
2021/04/07 05:09:05;;;;;;;5.72;3.38;;;;;;;-2.81;76.57;95089.00;4991000;28;20089;-66
2021/04/07 05:11:34;;;;;;;5.07;3.05;;;;;;;-2.78;77.39;95089.38;4991188;28;20053;-65
2021/04/07 05:14:01;;;;;;;4.88;3.47;;;;;;;-2.76;77.38;95096.91;4990342;28;20046;-65
2021/04/07 05:16:27;;;;;;;5.57;3.42;;;;;;;-2.79;77.99;95097.31;4990083;28;20436;-66
2021/04/07 05:18:52;;;;;;;9.88;4.07;;;;;;;-2.66;78.88;95094.78;4991399;28;20504;-65
2021/04/07 05:21:18;;;;;;;8.82;4.18;;;;;;;-2.69;79.16;95102.88;4991719;28;20042;-66
2021/04/07 05:23:43;;;;;;;7.97;4.53;;;;;;;-2.76;79.81;95107.22;4990580;28;20492;-66
2021/04/07 05:26:09;;;;;;;7.45;4.43;;;;;;;-2.67;79.74;95106.06;4987299;28;20508;-65
2021/04/07 05:28:35;;;;;;;6.57;4.30;;;;;;;-2.74;80.69;95105.25;4991350;28;20065;-66
2021/04/07 05:31:01;;;;;;;7.22;4.88;;;;;;;-2.82;80.80;95120.88;4991105;28;20042;-66
2021/04/07 05:33:30;;;;;;;8.38;5.55;;;;;;;-2.83;80.73;95112.38;4987704;28;20039;-66
2021/04/07 05:35:56;;;;;;;7.38;3.88;;;;;;;-2.69;81.42;95118.31;5005562;28;20046;-65
2021/04/07 05:38:23;;;;;;;7.63;3.70;;;;;;;-2.50;80.41;95124.50;4990930;28;20050;-66
2021/04/07 05:40:50;;;;;;;7.90;4.15;;;;;;;-2.76;80.25;95127.81;4990771;28;20042;-66
2021/04/07 05:43:16;;;;;;;9.25;4.78;;;;;;;-2.75;80.65;95129.41;4988897;28;20051;-66
2021/04/07 05:45:42;;;;;;;7.90;4.60;;;;;;;-2.56;80.65;95139.94;4987497;28;20096;-65
2021/04/07 05:48:08;;;;;;;6.65;4.80;;;;;;;-2.64;79.54;95136.56;4991188;28;20052;-65
2021/04/07 05:50:41;;;;;;;6.40;3.55;;;;;;;-2.63;79.53;95156.19;4990575;28;20042;-65
2021/04/07 05:53:08;;;;;;;9.73;4.55;;;;;;;-2.68;79.61;95155.97;4989430;28;20042;-65
2021/04/07 05:55:34;;;;;;;5.13;3.42;;;;;;;-2.59;79.92;95163.53;4987700;28;20294;-66
2021/04/07 05:58:01;;;;;;;6.40;3.65;;;;;;;-2.70;80.22;95162.31;4990001;28;20058;-65
2021/04/07 06:00:27;;;;;;;6.45;4.38;;;;;;;-2.91;82.38;95170.97;4988385;28;20054;-65
2021/04/07 06:03:00;;;;;;;10.15;7.15;;;;;;;-3.21;85.64;95176.41;4989586;28;20061;-65
2021/04/07 06:05:29;;;;;;;11.05;6.40;;;;;;;-3.19;86.99;95184.72;4988316;28;20046;-65
2021/04/07 06:07:55;;;;;;;9.52;5.90;;;;;;;-3.16;87.48;95189.47;4987226;28;20049;-65
2021/04/07 06:10:21;;;;;;;14.35;7.35;;;;;;;-3.04;88.10;95190.53;4987622;28;20133;-66
2021/04/07 06:12:47;;;;;;;11.10;5.72;;;;;;;-3.15;87.50;95196.22;4990357;28;20039;-66
2021/04/07 06:15:14;;;;;;;10.55;6.07;;;;;;;-2.97;87.80;95204.22;4989731;28;20047;-66
2021/04/07 06:17:42;;;;;;;9.15;4.65;;;;;;;-3.18;85.38;95196.59;4989629;28;20065;-65
2021/04/07 06:20:08;;;;;;;9.20;5.30;;;;;;;-3.06;85.24;95204.56;4990314;28;20104;-65
2021/04/07 06:22:35;;;;;;;9.30;4.68;;;;;;;-2.85;85.27;95219.91;4989857;28;20508;-65
2021/04/07 06:25:01;;;;;;;14.30;5.80;;;;;;;-2.85;85.06;95211.41;4987745;28;20480;-66
2021/04/07 06:27:27;;;;;;;16.42;4.60;;;;;;;-2.87;83.05;95214.19;4988599;28;20049;-66
2021/04/07 06:29:52;;;;;;;11.20;5.95;;;;;;;-2.90;82.97;95218.91;4989734;28;20039;-65
2021/04/07 06:32:18;;;;;;;11.60;5.55;;;;;;;-2.69;84.09;95229.09;4987277;28;20518;-65
2021/04/07 06:34:44;;;;;;;8.18;4.57;;;;;;;-2.55;82.52;95226.56;4987395;28;20035;-66
2021/04/07 06:37:09;;;;;;;21.55;5.75;;;;;;;-2.45;82.37;95227.00;4989063;28;20477;-66
2021/04/07 06:39:35;;;;;;;6.70;3.80;;;;;;;-2.77;80.87;95234.44;4988666;28;20046;-65
2021/04/07 06:42:00;;;;;;;12.80;4.13;;;;;;;-2.68;81.08;95233.25;4988856;28;20069;-66
2021/04/07 06:44:26;;;;;;;12.30;4.38;;;;;;;-2.75;81.10;95245.31;4989121;28;20050;-67
2021/04/07 06:46:55;;;;;;;9.68;3.72;;;;;;;-2.55;81.27;95253.13;4986738;28;20050;-66
2021/04/07 06:49:23;;;;;;;9.95;4.40;;;;;;;-2.67;80.36;95250.31;5004984;28;21877;-65
2021/04/07 06:51:54;;;;;;;5.55;3.20;;;;;;;-2.72;80.06;95257.03;4989563;28;20050;-66
2021/04/07 06:54:22;;;;;;;8.52;3.72;;;;;;;-2.62;79.94;95265.19;4985004;28;20043;-66
2021/04/07 06:56:50;;;;;;;11.00;3.72;;;;;;;-2.56;78.85;95261.03;4987049;28;20765;-66
2021/04/07 06:59:16;;;;;;;13.25;4.35;;;;;;;-2.70;78.97;95271.31;4989156;28;20073;-67
2021/04/07 07:01:42;;;;;;;7.97;4.00;;;;;;;-2.43;78.37;95279.13;5002469;28;20380;-65
2021/04/07 07:04:08;;;;;;;5.93;3.70;;;;;;;-2.49;77.88;95282.47;4986082;28;20053;-66
2021/04/07 07:06:34;;;;;;;5.18;3.47;;;;;;;-2.21;77.30;95294.44;4987303;28;20057;-66
2021/04/07 07:09:14;;;;;;;7.68;4.53;;;;;;;-2.46;77.53;95282.91;4988212;28;20085;-68
2021/04/07 07:11:40;;;;;;;6.45;4.20;;;;;;;-2.40;75.35;95291.63;4989829;28;20042;-67
2021/04/07 07:14:06;;;;;;;6.15;3.60;;;;;;;-2.43;75.45;95292.00;4988361;28;20496;-67
2021/04/07 07:16:31;;;;;;;7.20;3.45;;;;;;;-2.57;76.36;95310.97;4985276;28;20169;-66
2021/04/07 07:18:57;;;;;;;6.35;3.90;;;;;;;-2.58;78.51;95299.09;4987764;28;20061;-68
2021/04/07 07:21:25;;;;;;;10.90;3.35;;;;;;;-2.56;76.98;95302.28;4989249;28;20069;-67
2021/04/07 07:23:50;;;;;;;5.50;2.80;;;;;;;-2.43;75.61;95307.47;4988911;28;20038;-66
2021/04/07 07:26:18;;;;;;;7.95;3.97;;;;;;;-2.49;74.50;95315.97;4989041;28;20086;-66
2021/04/07 07:28:50;;;;;;;3.75;2.47;;;;;;;-2.38;73.27;95310.28;5000505;28;20100;-67
2021/04/07 07:31:17;;;;;;;10.40;4.30;;;;;;;-2.44;72.23;95316.22;4987758;28;20404;-67
2021/04/07 07:33:43;;;;;;;6.07;3.35;;;;;;;-2.32;72.64;95322.38;4987366;28;20050;-68
2021/04/07 07:36:09;;;;;;;5.50;3.25;;;;;;;-2.06;72.32;95318.31;4988055;28;20492;-68
2021/04/07 07:38:42;;;;;;;5.82;3.17;;;;;;;-2.17;71.45;95326.59;5002704;28;20049;-66
2021/04/07 07:41:08;;;;;;;7.18;3.30;;;;;;;-2.17;71.22;95331.75;4986845;28;20057;-67
2021/04/07 07:43:35;;;;;;;19.27;3.65;;;;;;;-2.13;71.59;95331.16;5002718;28;20377;-68
2021/04/07 07:46:16;;;;;;;8.25;3.38;;;;;;;-2.06;71.48;95340.72;4983463;28;20038;-67
2021/04/07 07:48:43;;;;;;;7.00;3.10;;;;;;;-2.00;70.82;95338.16;4989888;28;20069;-67
2021/04/07 07:51:20;;;;;;;4.82;3.20;;;;;;;-1.86;71.82;95333.03;4987785;28;20046;-70
2021/04/07 07:53:46;;;;;;;6.57;3.22;;;;;;;-1.81;70.06;95346.13;4984559;28;20512;-71
2021/04/07 07:56:14;;;;;;;6.53;3.63;;;;;;;-1.83;69.90;95345.53;4987396;28;20051;-68
2021/04/07 07:58:44;;;;;;;6.97;3.75;;;;;;;-1.84;70.80;95356.84;4988583;28;20447;-68
2021/04/07 08:01:14;;;;;;;4.97;3.25;;;;;;;-1.87;71.52;95352.06;4986933;28;20035;-67
2021/04/07 08:03:39;;;;;;;6.20;3.42;;;;;;;-2.02;72.19;95365.94;4987170;28;20047;-67
2021/04/07 08:06:05;;;;;;;7.53;3.65;;;;;;;-1.84;74.63;95377.47;4988736;28;20049;-67
2021/04/07 08:08:31;;;;;;;9.93;3.22;;;;;;;-1.85;72.48;95381.03;4987029;28;20046;-68
2021/04/07 08:10:57;;;;;;;8.18;4.65;;;;;;;-2.36;77.29;95380.47;4986068;28;20038;-67
2021/04/07 08:13:32;;;;;;;9.85;5.03;;;;;;;-2.21;79.36;95389.84;4987755;28;20085;-67
2021/04/07 08:15:58;;;;;;;9.18;4.80;;;;;;;-2.34;77.69;95398.31;4986569;28;20045;-67
2021/04/07 08:18:26;;;;;;;10.32;4.72;;;;;;;-2.47;79.19;95401.59;4987959;28;20412;-67
2021/04/07 08:20:53;;;;;;;8.88;4.97;;;;;;;-2.46;81.12;95406.59;4985747;28;20038;-67
2021/04/07 08:23:21;;;;;;;8.10;4.80;;;;;;;-2.51;80.21;95405.56;4986770;28;20058;-68
2021/04/07 08:25:53;;;;;;;10.13;5.18;;;;;;;-2.29;81.30;95407.06;4987884;28;20034;-67
2021/04/07 08:28:20;;;;;;;8.55;4.35;;;;;;;-2.11;79.48;95413.50;4988928;28;20046;-67
2021/04/07 08:30:46;;;;;;;8.13;4.30;;;;;;;-1.88;76.91;95417.53;4987015;28;20547;-68
2021/04/07 08:33:13;;;;;;;7.15;3.72;;;;;;;-2.12;76.68;95411.91;4986891;28;20038;-68
2021/04/07 08:35:43;;;;;;;7.20;3.88;;;;;;;-2.10;76.35;95410.75;4987125;28;20041;-68
2021/04/07 08:38:08;;;;;;;6.93;4.25;;;;;;;-2.22;78.19;95432.09;5004216;28;20495;-67
2021/04/07 08:40:38;;;;;;;7.60;3.42;;;;;;;-2.49;79.44;95431.94;5001860;28;20045;-67
2021/04/07 08:43:05;;;;;;;5.28;3.70;;;;;;;-2.51;79.73;95439.06;4988145;28;20050;-67
2021/04/07 08:45:40;;;;;;;7.35;4.00;;;;;;;-2.57;78.58;95435.47;4988003;28;20057;-67
2021/04/07 08:48:12;;;;;;;8.75;4.25;;;;;;;-2.44;77.08;95430.38;4991086;28;20118;-67
2021/04/07 08:50:37;;;;;;;5.65;3.58;;;;;;;-2.34;74.88;95430.06;4991118;28;20360;-67
2021/04/07 08:53:11;;;;;;;6.15;3.22;;;;;;;-2.06;72.69;95426.59;4992984;28;20412;-67
2021/04/07 08:55:41;;;;;;;7.15;2.78;;;;;;;-1.90;72.59;95429.84;5006905;28;20042;-67
2021/04/07 08:58:07;;;;;;;4.05;2.55;;;;;;;-1.82;70.92;95437.44;4991590;28;20053;-67
2021/04/07 09:00:35;;;;;;;7.82;3.40;;;;;;;-1.55;72.24;95432.34;5006829;28;20043;-68
2021/04/07 09:03:11;;;;;;;5.80;2.45;;;;;;;-1.39;70.88;95442.31;4988229;28;20038;-68
2021/04/07 09:05:37;;;;;;;6.07;3.03;;;;;;;-1.62;66.76;95447.81;4991315;28;20038;-68
2021/04/07 09:08:03;;;;;;;6.57;3.22;;;;;;;-1.40;67.99;95451.03;4991544;28;20046;-67
2021/04/07 09:10:39;;;;;;;4.75;2.80;;;;;;;-1.36;65.38;95447.09;4988768;28;20100;-68
2021/04/07 09:13:10;;;;;;;5.25;2.90;;;;;;;-1.23;66.18;95447.09;4990311;28;20042;-68
2021/04/07 09:15:50;;;;;;;10.25;2.90;;;;;;;-0.69;66.71;95449.69;4985362;28;20042;-66
2021/04/07 09:18:36;;;;;;;3.80;2.30;;;;;;;-1.28;64.94;95449.50;4989974;28;20567;-68
2021/04/07 09:21:04;;;;;;;5.72;2.50;;;;;;;-1.48;67.94;95459.78;4990455;28;20516;-68
2021/04/07 09:23:33;;;;;;;6.68;2.78;;;;;;;-1.59;66.47;95468.84;4987965;28;20049;-68
2021/04/07 09:26:22;;;;;;;5.57;2.58;;;;;;;-1.77;67.86;95466.00;4991794;28;20054;-67
2021/04/07 09:28:49;;;;;;;4.30;2.38;;;;;;;-1.50;67.46;95463.53;4990457;28;20117;-68
2021/04/07 09:31:35;;;;;;;8.13;3.03;;;;;;;-1.15;67.78;95465.97;4989615;28;20047;-68
2021/04/07 09:34:01;;;;;;;4.70;2.55;;;;;;;-1.25;63.89;95482.66;4989076;28;20101;-68
2021/04/07 09:36:32;;;;;;;5.47;2.90;;;;;;;-1.11;63.15;95467.97;4991854;28;20955;-68
2021/04/07 09:39:00;;;;;;;6.20;2.80;;;;;;;-0.55;65.24;95464.22;4987771;28;20089;-69
2021/04/07 09:41:29;;;;;;;3.95;2.80;;;;;;;-0.77;62.83;95491.25;4990656;28;20558;-68
2021/04/07 09:43:55;;;;;;;7.63;2.63;;;;;;;-1.05;68.56;95480.13;4989936;28;20451;-68
2021/04/07 09:46:22;;;;;;;4.85;2.60;;;;;;;-1.10;69.08;95489.44;4987485;28;20047;-69
2021/04/07 09:49:10;;;;;;;4.90;2.50;;;;;;;-1.20;69.23;95489.03;4991034;28;20042;-68
2021/04/07 09:51:44;;;;;;;2.83;1.85;;;;;;;-1.06;68.83;95490.66;4990247;28;20038;-68
2021/04/07 09:54:28;;;;;;;4.38;1.80;;;;;;;-1.01;69.04;95496.00;4989526;28;20045;-68
2021/04/07 09:57:08;;;;;;;5.53;2.13;;;;;;;-0.89;65.79;95499.59;5002193;28;20407;-69
2021/04/07 09:59:35;;;;;;;4.30;2.38;;;;;;;-0.57;65.33;95497.22;4986657;28;20042;-69
2021/04/07 10:02:23;;;;;;;4.68;2.22;;;;;;;-0.81;64.34;95490.06;5002858;28;20050;-68
2021/04/07 10:04:50;;;;;;;3.55;1.98;;;;;;;-0.56;62.61;95493.66;4990569;28;20105;-68
2021/04/07 10:07:22;;;;;;;6.82;2.40;;;;;;;-0.06;62.00;95487.22;4989710;28;20046;-68
2021/04/07 10:09:52;;;;;;;3.35;1.52;;;;;;;-0.20;60.09;95496.81;4989676;28;20049;-68
2021/04/07 10:12:21;;;;;;;10.05;3.28;;;;;;;-1.17;73.23;95523.00;4985667;28;20050;-68
2021/04/07 10:14:57;;;;;;;7.53;3.38;;;;;;;-2.61;81.23;95548.41;4989925;28;20464;-68
2021/04/07 10:17:25;;;;;;;8.00;3.10;;;;;;;-2.99;82.45;95551.25;4988268;28;20042;-68
2021/04/07 10:19:52;;;;;;;6.03;2.45;;;;;;;-3.09;83.33;95566.16;4988017;28;20096;-68
2021/04/07 10:22:27;;;;;;;7.32;3.78;;;;;;;-3.41;86.99;95563.03;4991073;28;20038;-68
2021/04/07 10:25:00;;;;;;;12.90;4.88;;;;;;;-3.44;89.21;95578.84;4990706;28;20496;-67
2021/04/07 10:27:26;;;;;;;7.72;3.33;;;;;;;-3.71;88.99;95568.22;4989064;28;20408;-68
2021/04/07 10:30:04;;;;;;;9.68;3.80;;;;;;;-3.59;87.01;95539.47;4989903;28;20050;-67
2021/04/07 10:32:30;;;;;;;7.97;3.70;;;;;;;-3.39;86.69;95535.38;4989693;28;20108;-68
2021/04/07 10:35:00;;;;;;;11.70;3.88;;;;;;;-3.08;85.89;95530.94;4989988;28;20038;-67
2021/04/07 10:37:26;;;;;;;8.82;4.18;;;;;;;-2.89;84.70;95524.38;4987908;28;20492;-67
2021/04/07 10:39:51;;;;;;;8.80;4.28;;;;;;;-2.24;79.73;95532.84;5005501;28;20046;-69
2021/04/07 10:42:19;;;;;;;6.30;3.72;;;;;;;-2.10;77.96;95523.38;4989604;28;20045;-68
2021/04/07 10:45:05;;;;;;;8.70;3.75;;;;;;;-2.15;78.39;95541.22;4987838;28;20104;-68
2021/04/07 10:47:35;;;;;;;7.30;4.03;;;;;;;-2.14;77.43;95547.94;4989409;28;20054;-68
2021/04/07 10:50:01;;;;;;;8.27;3.70;;;;;;;-2.04;77.38;95548.44;4989974;28;20042;-69
2021/04/07 10:52:32;;;;;;;6.97;3.75;;;;;;;-2.02;77.38;95551.59;4989574;28;20096;-67
2021/04/07 10:54:59;;;;;;;6.38;3.97;;;;;;;-1.96;77.72;95545.69;4988163;28;20389;-73
2021/04/07 10:57:33;;;;;;;7.20;4.00;;;;;;;-1.61;77.44;95553.44;4989842;28;20046;-73
2021/04/07 10:59:58;;;;;;;10.98;4.28;;;;;;;-1.55;76.74;95551.06;4988448;28;20042;-68
2021/04/07 11:02:24;;;;;;;7.43;2.90;;;;;;;-1.62;74.64;95551.81;4988775;28;20420;-68
2021/04/07 11:04:50;;;;;;;7.13;2.97;;;;;;;-1.50;71.89;95548.69;4987204;28;20046;-68
2021/04/07 11:07:16;;;;;;;5.65;2.83;;;;;;;-1.35;71.79;95551.13;4989635;28;20042;-68
2021/04/07 11:09:46;;;;;;;4.97;2.60;;;;;;;-0.90;71.67;95549.69;4987845;28;20097;-68
2021/04/07 11:12:14;;;;;;;5.35;2.38;;;;;;;0.24;67.29;95548.84;4986525;28;20035;-68
2021/04/07 11:14:41;;;;;;;4.97;2.40;;;;;;;0.52;65.11;95531.25;4986454;28;20038;-69
2021/04/07 11:17:14;;;;;;;3.45;1.63;;;;;;;-0.21;62.60;95558.06;4985357;28;20035;-69
2021/04/07 11:19:39;;;;;;;6.53;2.03;;;;;;;-1.08;68.50;95557.19;4989153;28;20042;-69
2021/04/07 11:22:07;;;;;;;3.85;1.92;;;;;;;-1.05;71.41;95549.03;4989536;28;20562;-70
2021/04/07 11:24:33;;;;;;;4.68;2.47;;;;;;;-1.14;70.27;95557.97;4985419;28;20042;-69
2021/04/07 11:26:58;;;;;;;5.07;1.52;;;;;;;-0.99;67.52;95556.03;4989387;28;20057;-69
2021/04/07 11:29:25;;;;;;;3.67;1.67;;;;;;;-0.62;62.98;95555.69;4987984;28;20397;-69
2021/04/07 11:31:52;;;;;;;2.75;1.85;;;;;;;0.36;65.05;95549.84;4988062;28;20096;-69
2021/04/07 11:34:23;;;;;;;6.07;2.10;;;;;;;0.97;65.43;95545.19;4986703;28;20041;-69